MUC | München Airways

 METAR UND TAF INFORMATION

METAR FOR LGIR
ADDS - METARS form results

(0840 UTC 19 March 2019)
Data provider http://aviationweather.gov/metar/data/
 
METAR text: LGIR 190820Z 00000KT 9999 FEW025 16/11 Q1017
Conditions at: LGIR (IRAKLION (CIV/AF, GR) observed 0820 UTC 19 March 2019
Temperature: 16.0°C (61°F)
Dewpoint: 11.0°C (52°F) [RH = 72%]
Pressure (altimeter): 30.03 inches Hg (1017.0 mb)
Winds: calm
Visibility: 6 or more miles (10+ km)
Ceiling: at least 12,000 feet AGL
Clouds: few clouds at 2500 feet AGL
Weather: no significant weather observed at this time

METAR text: LGIR 190750Z 00000KT 9999 FEW025 16/11 Q1017 NOSIG
Conditions at: LGIR (IRAKLION (CIV/AF, GR) observed 0750 UTC 19 March 2019
Temperature: 16.0°C (61°F)
Dewpoint: 11.0°C (52°F) [RH = 72%]
Pressure (altimeter): 30.03 inches Hg (1017.0 mb)
Winds: calm
Visibility: 6 or more miles (10+ km)
Ceiling: at least 12,000 feet AGL
Clouds: few clouds at 2500 feet AGL
Weather: no significant weather observed at this time

Forecast for: LGIR (IRAKLION (CIV/AF, GR)
Text: TAF LGIR 190500Z 1906/2006 VRB03KT 9999 FEW020 SCT030
Forecast period: 0600 UTC 19 March 2019 to 0600 UTC 20 March 2019
Forecast type: FROM: standard forecast or significant change
Winds: variable direction winds at 3 MPH (3 knots; 1.5 m/s)
Visibility: 6 or more miles 10+ km)
Ceiling: at least 12,000 feet AGL
Clouds: few clouds at 2000 feet AGL
scattered clouds at 3000 feet AGL
Weather: no significant weather forecast for this period

 FLUGHAFENKARTE

 RUNWAY INFORMATION
Runway 09 Runway length 8800 ft Runway width 148 ft
Runway elevation 78 ft Runway displaced threshold 1565 ft Runway heading 95
Runway 27 Runway length 8800 ft Runway width 148 ft
Runway elevation 82 ft Runway displaced threshold 0 ft Runway heading 275
Runway 12 Runway length 5138 ft Runway width 164 ft
Runway elevation 57 ft Runway displaced threshold 499 ft Runway heading 126
Runway 30 Runway length 5138 ft Runway width 164 ft
Runway elevation 115 ft Runway displaced threshold 0 ft Runway heading 306
Runway 18 Runway length 2559 ft Runway width 131 ft
Runway elevation 78 ft Runway displaced threshold 0 ft Runway heading 180
Runway 36 Runway length 2559 ft Runway width 131 ft
Runway elevation 115 ft Runway displaced threshold 328 ft Runway heading 0

 AIRPORT FREQUENCIES
Type A/G Name KAZANTZAKI Frequency 563.7 MHZ
Type APP Name IRAKLION A Frequency 123.975 MHZ
Type ATIS Name ATIS Frequency 127.55 MHZ
Type DIR Name IRAKLION D Frequency 118.025 MHZ
Type GND Name KAZANTZAKI Frequency 121.7 MHZ
Type TRSA Name IRAKLION R Frequency 123.975 MHZ
Type TWR Name KAZANTZAKI Frequency 120.85 MHZ

 AIRPORT NEAR NAVIGATION AIDS
Type NDB Name Iraklion Frequency 431 KHZ
Type VOR-DME Name Iraklion Frequency 108800 KHZ
Type TACAN Name Iraklion Frequency 108300 KHZ